Coreau, Brazil
Current Conditions -  °F | °C
As of 12:00 AM on Friday 21 Nov 2014 (Local Time) from SBPB Reporting Station
Few Clouds Few Clouds  
Wind Chill: 82°   Ceiling: Unl
Heat Index: 88°   Visibility: 6mi
Dew Point: 73°   Wind: 17mph
Humidity: 74%   Direction: 80°E
Pressure: 29.83"   Gusts: NA
Location:  3.53°S, 40.66°W
Report Text: SBPB 210300Z 08015KT 9999 FEW020 28/23 Q1010
Loading
Personal Weather Stations






























Interactive Weather Map New forecast layout! Learn more

10-Day Weather Forecast

Advertisements
Track Severe Weather on mobile